Terminal Aerodrome Forecast
Issued by NWS Sterling, VA

Current Version | Previous Version | Text Only | Print | Product List | Glossary Off
Versions: 1 2 3 4 5 6 7 8 9 10 11 12 13 14

000
FTUS41 KLWX 190500
TAFMRB
TAF
KMRB 190535Z 1906/2006 VRB03KT P6SM BKN050
     FM190900 00000KT 3SM BR BKN015
     FM191300 VRB03KT P6SM BKN025
     FM191800 12005KT P6SM BKN050
     FM200100 VRB03KT P6SM FEW050 SCT130=

USA.gov is the U.S. government's official web portal to all federal, state and local government web resources and services.